createdAt,value
2023-03-31T00:00:26.666Z,99488.34
2023-03-31T00:01:00.997Z,99489.97
2023-03-31T00:01:36.783Z,99485.91
2023-03-31T00:02:13.972Z,99482.19
2023-03-31T00:02:47.716Z,99484.59
2023-03-31T00:03:22.922Z,99488.94
2023-03-31T00:04:03.913Z,99481.19
2023-03-31T00:04:36.353Z,99486.81
2023-03-31T00:05:09.956Z,99490.84
2023-03-31T00:05:48.324Z,99491.41
2023-03-31T00:06:20.543Z,99495.13
2023-03-31T00:06:56.639Z,99494.31
2023-03-31T00:07:28.854Z,99494.84
2023-03-31T00:08:02.071Z,99494.03
2023-03-31T00:08:40.493Z,99499.94
2023-03-31T00:09:16.122Z,99493.47
2023-03-31T00:09:48.767Z,99497.22
2023-03-31T00:10:23.841Z,99486.25
2023-03-31T00:11:00.190Z,99489.22
2023-03-31T00:11:32.388Z,99488.41
2023-03-31T00:12:07.593Z,99498.88
2023-03-31T00:12:39.763Z,99495.09
2023-03-31T00:13:12.136Z,99486.81
2023-03-31T00:13:46.897Z,99494.31
2023-03-31T00:14:20.957Z,99493.25
2023-03-31T00:14:53.578Z,99497.56
2023-03-31T00:15:26.312Z,99496.22
2023-03-31T00:16:02.013Z,99487.13
2023-03-31T00:16:34.531Z,99491.47
2023-03-31T00:17:09.648Z,99493.66
2023-03-31T00:17:43.708Z,99494.50
2023-03-31T00:18:16.269Z,99487.25
2023-03-31T00:18:53.627Z,99492.91
2023-03-31T00:19:25.814Z,99493.97
2023-03-31T00:20:00.529Z,99491.03
2023-03-31T00:20:38.304Z,99486.19
2023-03-31T00:21:14.834Z,99492.91
2023-03-31T00:21:48.479Z,99488.66
2023-03-31T00:22:27.788Z,99490.53
2023-03-31T00:23:01.927Z,99489.44
2023-03-31T00:23:34.309Z,99487.06
2023-03-31T00:24:12.772Z,99486.53
2023-03-31T00:24:45.119Z,99484.91
2023-03-31T00:25:17.528Z,99486.53
2023-03-31T00:25:52.319Z,99488.97
2023-03-31T00:26:26.460Z,99484.69
2023-03-31T00:27:01.524Z,99486.56
2023-03-31T00:27:33.684Z,99489.53
2023-03-31T00:28:05.967Z,99489.78
2023-03-31T00:28:40.751Z,99486.56
2023-03-31T00:29:14.346Z,99490.06
2023-03-31T00:29:47.501Z,99485.78
2023-03-31T00:30:22.929Z,99487.34
2023-03-31T00:31:01.218Z,99490.84
2023-03-31T00:31:34.689Z,99487.66
2023-03-31T00:32:09.585Z,99486.84
2023-03-31T00:32:42.052Z,99488.72
2023-03-31T00:33:14.586Z,99474.75
2023-03-31T00:33:53.154Z,99480.66
2023-03-31T00:34:25.430Z,99488.72
2023-03-31T00:34:58.043Z,99481.47
2023-03-31T00:35:30.242Z,99480.66
2023-03-31T00:36:06.761Z,99477.97
2023-03-31T00:36:46.056Z,99481.22
2023-03-31T00:37:18.314Z,99472.88
2023-03-31T00:37:54.028Z,99468.59
2023-03-31T00:38:29.247Z,99465.91
2023-03-31T00:39:08.956Z,99466.19
2023-03-31T00:39:41.632Z,99462.16
2023-03-31T00:40:14.157Z,99460.56
2023-03-31T00:40:47.493Z,99462.44
2023-03-31T00:41:22.720Z,99466.44
2023-03-31T00:41:54.895Z,99463.22
2023-03-31T00:42:30.518Z,99463.72
2023-03-31T00:43:03.544Z,99460.78
2023-03-31T00:43:38.193Z,99462.16
2023-03-31T00:44:19.287Z,99462.66
2023-03-31T00:45:24.666Z,99462.13
2023-03-31T00:46:07.951Z,99450.59
2023-03-31T00:46:47.304Z,99458.09
2023-03-31T00:47:21.271Z,99448.72
2023-03-31T00:47:58.506Z,99454.38
2023-03-31T00:48:31.875Z,99460.53
2023-03-31T00:49:16.588Z,99453.31
2023-03-31T00:49:51.918Z,99449.53
2023-03-31T00:50:29.224Z,99448.44
2023-03-31T00:51:08.445Z,99452.47
2023-03-31T00:51:41.052Z,99447.66
2023-03-31T00:52:18.160Z,99448.44
2023-03-31T00:52:58.435Z,99450.59
2023-03-31T00:53:33.766Z,99456.50
2023-03-31T00:54:08.677Z,99449.22
2023-03-31T00:54:45.396Z,99451.13
2023-03-31T00:55:22.759Z,99457.56
2023-03-31T00:55:59.502Z,99452.19
2023-03-31T00:56:40.205Z,99454.88
2023-03-31T00:57:13.185Z,99452.44
2023-03-31T00:57:47.179Z,99447.91
2023-03-31T00:58:28.357Z,99457.00
2023-03-31T00:59:07.946Z,99453.50
2023-03-31T00:59:47.525Z,99452.69
2023-03-31T01:00:20.391Z,99452.19
2023-03-31T01:00:53.224Z,99450.31
2023-03-31T01:01:26.769Z,99446.81
2023-03-31T01:02:03.633Z,99438.78
2023-03-31T01:02:41.653Z,99446.00
2023-03-31T01:03:14.375Z,99444.38
2023-03-31T01:03:50.747Z,99444.38
2023-03-31T01:04:26.635Z,99443.88
2023-03-31T01:05:02.581Z,99443.34
2023-03-31T01:05:41.328Z,99434.22
2023-03-31T01:06:15.410Z,99435.03
2023-03-31T01:06:57.584Z,99434.50
2023-03-31T01:07:41.016Z,99444.41
2023-03-31T01:08:15.195Z,99442.00
2023-03-31T01:08:50.188Z,99439.88
2023-03-31T01:09:25.173Z,99443.63
2023-03-31T01:10:00.413Z,99441.19
2023-03-31T01:10:41.870Z,99438.28
2023-03-31T01:11:19.980Z,99436.69
2023-03-31T01:11:53.581Z,99437.19
2023-03-31T01:12:27.009Z,99434.50
2023-03-31T01:13:02.098Z,99429.72
2023-03-31T01:13:37.723Z,99426.47
2023-03-31T01:14:10.739Z,99432.38
2023-03-31T01:14:45.559Z,99434.00
2023-03-31T01:15:18.322Z,99437.50
2023-03-31T01:15:50.781Z,99431.31
2023-03-31T01:16:26.300Z,99429.44
2023-03-31T01:16:59.370Z,99428.09
2023-03-31T01:17:32.114Z,99431.84
2023-03-31T01:18:10.203Z,99435.63
2023-03-31T01:18:46.711Z,99432.38
2023-03-31T01:19:28.956Z,99432.38
2023-03-31T01:20:15.957Z,99425.41
2023-03-31T01:21:26.160Z,99425.69
2023-03-31T01:22:38.048Z,99421.63
2023-03-31T01:23:31.860Z,99428.59
2023-03-31T01:24:47.600Z,99421.38
2023-03-31T01:25:50.445Z,99424.84
2023-03-31T01:26:45.977Z,99423.53
2023-03-31T01:27:49.307Z,99421.63
2023-03-31T01:28:34.936Z,99412.78
2023-03-31T01:29:19.598Z,99420.03
2023-03-31T01:30:17.145Z,99414.38
2023-03-31T01:31:13.986Z,99415.97
2023-03-31T01:32:16.521Z,99414.63
2023-03-31T01:33:15.768Z,99416.47
2023-03-31T01:34:20.774Z,99415.16
2023-03-31T01:35:22.791Z,99406.56
2023-03-31T01:36:13.028Z,99409.25
2023-03-31T01:37:24.032Z,99402.28
2023-03-31T01:38:07.507Z,99409.50
2023-03-31T01:39:16.787Z,99409.78
2023-03-31T01:40:16.539Z,99409.22
2023-03-31T01:41:04.301Z,99404.41
2023-03-31T01:41:47.364Z,99405.75
2023-03-31T01:42:24.294Z,99403.06
2023-03-31T01:43:04.369Z,99398.03
2023-03-31T01:43:44.057Z,99399.59
2023-03-31T01:44:24.575Z,99396.94
2023-03-31T01:45:06.548Z,99399.09
2023-03-31T01:45:51.915Z,99400.16
2023-03-31T01:46:34.524Z,99400.16
2023-03-31T01:47:14.618Z,99400.94
2023-03-31T01:47:52.499Z,99395.34
2023-03-31T01:48:42.190Z,99392.91
2023-03-31T01:49:23.199Z,99393.97
2023-03-31T01:50:05.075Z,99395.31
2023-03-31T01:50:46.936Z,99399.31
2023-03-31T01:51:27.769Z,99405.75
2023-03-31T01:52:07.790Z,99398.00
2023-03-31T01:52:46.237Z,99398.50
2023-03-31T01:53:26.307Z,99400.41
2023-03-31T01:54:03.940Z,99395.28
2023-03-31T01:54:44.284Z,99393.94
2023-03-31T01:55:25.789Z,99396.38
2023-03-31T01:56:06.166Z,99391.03
2023-03-31T01:56:44.056Z,99395.31
2023-03-31T01:57:20.682Z,99389.44
2023-03-31T01:57:58.447Z,99392.66
2023-03-31T01:58:39.208Z,99389.97
2023-03-31T01:59:14.985Z,99386.78
2023-03-31T01:59:55.763Z,99387.84
2023-03-31T02:00:33.566Z,99383.78
2023-03-31T02:01:13.779Z,99383.53
2023-03-31T02:01:55.608Z,99379.75
2023-03-31T02:02:31.664Z,99376.00
2023-03-31T02:03:10.996Z,99379.25
2023-03-31T02:03:50.969Z,99377.63
2023-03-31T02:04:26.705Z,99378.97
2023-03-31T02:05:03.365Z,99383.81
2023-03-31T02:05:44.838Z,99381.41
2023-03-31T02:06:22.203Z,99377.38
2023-03-31T02:06:58.474Z,99376.56
2023-03-31T02:07:38.063Z,99373.38
2023-03-31T02:08:13.774Z,99371.22
2023-03-31T02:08:52.683Z,99376.03
2023-03-31T02:09:32.351Z,99365.06
2023-03-31T02:10:08.655Z,99364.25
2023-03-31T02:10:46.077Z,99360.75
2023-03-31T02:11:21.353Z,99363.19
2023-03-31T02:11:56.403Z,99358.88
2023-03-31T02:12:36.111Z,99370.41
2023-03-31T02:13:11.891Z,99361.31
2023-03-31T02:13:54.204Z,99356.19
2023-03-31T02:14:31.317Z,99355.94
2023-03-31T02:15:07.922Z,99350.06
2023-03-31T02:15:49.849Z,99353.25
2023-03-31T02:16:26.876Z,99353.81
2023-03-31T02:17:02.498Z,99348.16
2023-03-31T02:17:40.678Z,99345.47
2023-03-31T02:18:18.936Z,99342.78
2023-03-31T02:19:02.805Z,99340.09
2023-03-31T02:19:39.869Z,99345.75
2023-03-31T02:20:17.198Z,99336.66
2023-03-31T02:20:52.306Z,99340.91
2023-03-31T02:21:24.628Z,99347.09
2023-03-31T02:21:59.632Z,99341.47
2023-03-31T02:22:36.933Z,99348.16
2023-03-31T02:23:15.629Z,99343.06
2023-03-31T02:23:51.044Z,99341.47
2023-03-31T02:24:26.807Z,99342.25
2023-03-31T02:25:05.130Z,99343.06
2023-03-31T02:25:42.545Z,99337.16
2023-03-31T02:26:24.551Z,99342.78
2023-03-31T02:27:14.033Z,99337.72
2023-03-31T02:27:51.945Z,99335.03
2023-03-31T02:28:26.932Z,99340.09
2023-03-31T02:29:01.967Z,99340.41
2023-03-31T02:29:35.124Z,99336.91
2023-03-31T02:30:09.185Z,99344.41
2023-03-31T02:30:51.044Z,99337.72
2023-03-31T02:31:29.508Z,99336.91
2023-03-31T02:32:08.251Z,99328.31
2023-03-31T02:32:46.884Z,99331.81
2023-03-31T02:33:20.138Z,99328.06
2023-03-31T02:33:52.584Z,99334.25
2023-03-31T02:34:27.351Z,99333.72
2023-03-31T02:35:01.206Z,99338.53
2023-03-31T02:35:35.205Z,99330.22
2023-03-31T02:36:10.934Z,99339.06
2023-03-31T02:36:45.926Z,99336.09
2023-03-31T02:37:21.213Z,99333.16
2023-03-31T02:37:58.997Z,99336.38
2023-03-31T02:38:36.789Z,99331.84
2023-03-31T02:39:17.184Z,99331.84
2023-03-31T02:39:52.964Z,99335.28
2023-03-31T02:40:27.869Z,99336.38
2023-03-31T02:41:02.863Z,99330.22
2023-03-31T02:41:38.227Z,99331.53
2023-03-31T02:42:11.372Z,99326.97
2023-03-31T02:42:46.568Z,99324.59
2023-03-31T02:43:18.972Z,99324.84
2023-03-31T02:43:53.738Z,99331.81
2023-03-31T02:44:28.839Z,99327.25
2023-03-31T02:45:03.578Z,99319.22
2023-03-31T02:45:47.265Z,99321.34
2023-03-31T02:46:19.855Z,99318.94
2023-03-31T02:46:52.643Z,99317.34
2023-03-31T02:47:27.567Z,99318.13
2023-03-31T02:47:59.901Z,99321.63
2023-03-31T02:48:36.728Z,99322.44
2023-03-31T02:49:14.474Z,99322.44
2023-03-31T02:49:50.200Z,99314.38
2023-03-31T02:50:33.287Z,99318.94
2023-03-31T02:51:40.971Z,99317.59
2023-03-31T02:52:45.089Z,99317.59
2023-03-31T02:53:29.140Z,99325.63
2023-03-31T02:54:25.570Z,99321.59
2023-03-31T02:55:21.427Z,99317.59
2023-03-31T02:56:08.810Z,99315.72
2023-03-31T02:57:07.372Z,99315.97
2023-03-31T02:58:14.979Z,99322.41
2023-03-31T02:59:17.089Z,99318.63
2023-03-31T03:00:04.950Z,99320.78
2023-03-31T03:00:59.002Z,99318.13
2023-03-31T03:01:50.931Z,99320.78
2023-03-31T03:02:36.136Z,99327.75
2023-03-31T03:03:20.613Z,99321.84
2023-03-31T03:04:02.736Z,99318.63
2023-03-31T03:04:53.480Z,99320.50
2023-03-31T03:05:36.745Z,99317.56
2023-03-31T03:06:44.585Z,99323.69
2023-03-31T03:07:30.306Z,99333.06
2023-03-31T03:08:13.587Z,99326.91
2023-03-31T03:09:05.316Z,99327.16
2023-03-31T03:09:49.665Z,99330.09
2023-03-31T03:10:37.598Z,99332.25
2023-03-31T03:11:18.604Z,99325.03
2023-03-31T03:12:08.906Z,99325.03
2023-03-31T03:12:45.640Z,99326.16
2023-03-31T03:13:24.812Z,99330.97
2023-03-31T03:14:06.327Z,99316.22
2023-03-31T03:14:48.362Z,99319.47
2023-03-31T03:15:29.193Z,99318.13
2023-03-31T03:16:06.668Z,99313.56
2023-03-31T03:16:46.420Z,99319.75
2023-03-31T03:17:25.173Z,99309.03
2023-03-31T03:17:58.871Z,99315.47
2023-03-31T03:18:34.324Z,99316.53
2023-03-31T03:19:07.847Z,99309.53
2023-03-31T03:19:41.792Z,99311.69
2023-03-31T03:20:18.042Z,99315.44
2023-03-31T03:20:51.171Z,99316.50
2023-03-31T03:21:23.452Z,99314.13
2023-03-31T03:21:58.848Z,99317.06
2023-03-31T03:22:31.200Z,99314.38
2023-03-31T03:23:03.463Z,99322.16
2023-03-31T03:23:38.401Z,99320.81
2023-03-31T03:24:10.716Z,99320.28
2023-03-31T03:24:42.983Z,99316.78
2023-03-31T03:25:20.597Z,99323.75
2023-03-31T03:25:52.818Z,99323.75
2023-03-31T03:26:28.338Z,99312.25
2023-03-31T03:27:03.111Z,99314.63
2023-03-31T03:27:38.048Z,99312.25
2023-03-31T03:28:10.707Z,99314.91
2023-03-31T03:28:43.683Z,99313.31
2023-03-31T03:29:18.479Z,99313.31
2023-03-31T03:29:51.300Z,99317.84
2023-03-31T03:30:23.527Z,99311.69
2023-03-31T03:30:58.375Z,99313.31
2023-03-31T03:31:31.023Z,99314.09
2023-03-31T03:32:03.248Z,99315.97
2023-03-31T03:32:38.523Z,99315.72
2023-03-31T03:33:17.363Z,99308.19
2023-03-31T03:33:50.033Z,99307.69
2023-03-31T03:34:25.802Z,99302.56
2023-03-31T03:34:57.972Z,99309.25
2023-03-31T03:35:30.115Z,99302.03
2023-03-31T03:36:05.157Z,99298.03
2023-03-31T03:36:40.461Z,99300.94
2023-03-31T03:37:12.650Z,99299.09
2023-03-31T03:37:44.889Z,99293.97
2023-03-31T03:38:19.789Z,99290.53
2023-03-31T03:38:52.108Z,99303.91
2023-03-31T03:39:24.299Z,99302.56
2023-03-31T03:39:59.051Z,99306.59
2023-03-31T03:40:31.255Z,99303.91
2023-03-31T03:41:03.571Z,99308.19
2023-03-31T03:41:39.632Z,99301.25
2023-03-31T03:42:14.478Z,99299.63
2023-03-31T03:42:46.674Z,99306.31
2023-03-31T03:43:21.453Z,99301.50
2023-03-31T03:43:53.620Z,99303.91
2023-03-31T03:44:26.039Z,99299.34
2023-03-31T03:45:01.537Z,99295.84
2023-03-31T03:45:35.288Z,99301.50
2023-03-31T03:46:07.788Z,99298.53
2023-03-31T03:46:42.745Z,99303.13
2023-03-31T03:47:15.315Z,99300.44
2023-03-31T03:47:47.537Z,99300.44
2023-03-31T03:48:23.001Z,99298.81
2023-03-31T03:48:56.026Z,99300.69
2023-03-31T03:49:30.814Z,99304.44
2023-03-31T03:50:03.165Z,99300.44
2023-03-31T03:50:37.478Z,99293.19
2023-03-31T03:51:12.308Z,99290.78
2023-03-31T03:51:44.479Z,99295.59
2023-03-31T03:52:19.574Z,99295.59
2023-03-31T03:52:51.846Z,99294.00
2023-03-31T03:53:23.994Z,99298.56
2023-03-31T03:53:58.798Z,99302.03
2023-03-31T03:54:31.109Z,99298.56
2023-03-31T03:55:03.386Z,99297.75
2023-03-31T03:55:38.196Z,99290.75
2023-03-31T03:56:10.538Z,99299.34
2023-03-31T03:56:42.840Z,99294.00
2023-03-31T03:57:20.347Z,99296.38
2023-03-31T03:57:52.544Z,99294.78
2023-03-31T03:58:24.847Z,99295.59
2023-03-31T03:58:59.663Z,99286.22
2023-03-31T03:59:31.856Z,99290.78
2023-03-31T04:00:10.485Z,99296.94
2023-03-31T04:00:45.429Z,99293.47
2023-03-31T04:01:18.351Z,99290.22
2023-03-31T04:01:53.638Z,99288.63
2023-03-31T04:02:28.897Z,99294.78
2023-03-31T04:03:01.972Z,99287.84
2023-03-31T04:03:36.759Z,99294.00
2023-03-31T04:04:09.175Z,99294.00
2023-03-31T04:04:41.455Z,99295.06
2023-03-31T04:05:16.354Z,99288.09
2023-03-31T04:05:50.098Z,99282.72
2023-03-31T04:06:22.292Z,99296.94
2023-03-31T04:06:57.103Z,99292.38
2023-03-31T04:07:29.352Z,99287.53
2023-03-31T04:08:01.579Z,99285.69
2023-03-31T04:08:37.173Z,99287.28
2023-03-31T04:09:09.380Z,99291.03
2023-03-31T04:09:41.648Z,99289.16
2023-03-31T04:10:16.529Z,99293.47
2023-03-31T04:10:49.975Z,99283.81
2023-03-31T04:11:22.506Z,99292.66
2023-03-31T04:11:57.411Z,99291.59
2023-03-31T04:12:34.466Z,99295.06
2023-03-31T04:13:07.044Z,99291.59
2023-03-31T04:13:41.813Z,99293.47
2023-03-31T04:14:13.994Z,99296.13
2023-03-31T04:14:46.221Z,99294.53
2023-03-31T04:15:21.066Z,99287.28
2023-03-31T04:15:53.340Z,99287.28
2023-03-31T04:16:25.784Z,99290.53
2023-03-31T04:17:00.698Z,99285.69
2023-03-31T04:17:34.829Z,99287.56
2023-03-31T04:18:07.253Z,99283.81
2023-03-31T04:18:42.997Z,99288.38
2023-03-31T04:19:19.470Z,99280.88
2023-03-31T04:19:53.139Z,99284.09
2023-03-31T04:20:28.039Z,99284.09
2023-03-31T04:21:06.856Z,99278.72
2023-03-31T04:21:45.636Z,99283.56
2023-03-31T04:22:20.803Z,99276.03
2023-03-31T04:22:52.982Z,99279.00
2023-03-31T04:23:26.792Z,99279.78
2023-03-31T04:24:01.912Z,99277.38
2023-03-31T04:24:38.987Z,99284.38
2023-03-31T04:25:16.745Z,99281.41
2023-03-31T04:25:50.152Z,99277.66
2023-03-31T04:26:31.092Z,99274.16
2023-03-31T04:27:05.003Z,99275.50
2023-03-31T04:27:46.798Z,99270.66
2023-03-31T04:28:21.615Z,99279.81
2023-03-31T04:28:53.788Z,99278.72
2023-03-31T04:29:26.854Z,99274.97
2023-03-31T04:30:01.721Z,99273.09
2023-03-31T04:30:33.892Z,99279.50
2023-03-31T04:31:06.512Z,99273.34
2023-03-31T04:31:43.196Z,99270.66
2023-03-31T04:32:21.796Z,99272.03
2023-03-31T04:32:56.723Z,99272.56
2023-03-31T04:33:34.307Z,99264.53
2023-03-31T04:34:07.096Z,99266.09
2023-03-31T04:34:46.725Z,99266.09
2023-03-31T04:35:20.870Z,99263.41
2023-03-31T04:35:53.235Z,99266.09
2023-03-31T04:36:29.166Z,99269.34
2023-03-31T04:37:03.107Z,99267.47
2023-03-31T04:37:35.258Z,99265.59
2023-03-31T04:38:10.201Z,99266.41
2023-03-31T04:38:42.441Z,99264.53
2023-03-31T04:39:16.144Z,99264.22
2023-03-31T04:39:54.770Z,99262.38
2023-03-31T04:40:26.964Z,99255.94
2023-03-31T04:40:59.228Z,99258.38
2023-03-31T04:41:34.076Z,99262.91
2023-03-31T04:42:06.318Z,99258.38
2023-03-31T04:42:41.265Z,99258.38
2023-03-31T04:43:16.717Z,99261.03
2023-03-31T04:43:49.005Z,99254.06
2023-03-31T04:44:21.302Z,99261.03
2023-03-31T04:44:56.066Z,99254.34
2023-03-31T04:45:28.275Z,99255.66
2023-03-31T04:46:00.505Z,99251.41
2023-03-31T04:46:33.045Z,99252.19
2023-03-31T04:47:08.002Z,99257.00
2023-03-31T04:47:40.362Z,99251.91
2023-03-31T04:48:13.068Z,99245.75
2023-03-31T04:48:48.000Z,99250.59
2023-03-31T04:49:20.628Z,99249.53
2023-03-31T04:49:52.912Z,99249.53
2023-03-31T04:50:28.653Z,99251.09
2023-03-31T04:51:00.979Z,99254.88
2023-03-31T04:51:36.073Z,99257.81
2023-03-31T04:52:08.246Z,99257.00
2023-03-31T04:52:40.964Z,99254.59
2023-03-31T04:53:15.725Z,99251.09
2023-03-31T04:53:47.922Z,99253.78
2023-03-31T04:54:20.358Z,99251.38
2023-03-31T04:54:55.114Z,99244.41
2023-03-31T04:55:27.458Z,99250.59
2023-03-31T04:55:59.735Z,99248.97
2023-03-31T04:56:34.524Z,99248.97
2023-03-31T04:57:06.785Z,99248.16
2023-03-31T04:57:42.300Z,99250.59
2023-03-31T04:58:17.088Z,99247.91
2023-03-31T04:58:49.271Z,99246.84
2023-03-31T04:59:21.465Z,99247.66
2023-03-31T04:59:56.226Z,99246.84
2023-03-31T05:00:29.172Z,99240.66
2023-03-31T05:01:01.434Z,99245.22
2023-03-31T05:01:36.718Z,99246.84
2023-03-31T05:02:09.794Z,99244.97
2023-03-31T05:02:44.757Z,99250.03
2023-03-31T05:03:17.115Z,99247.09
2023-03-31T05:03:49.586Z,99244.41
2023-03-31T05:04:24.600Z,99244.16
2023-03-31T05:04:56.784Z,99240.69
2023-03-31T05:05:29.011Z,99241.47
2023-03-31T05:06:04.161Z,99244.16
2023-03-31T05:06:36.892Z,99239.88
2023-03-31T05:07:09.078Z,99242.56
2023-03-31T05:07:43.915Z,99238.50
2023-03-31T05:08:16.209Z,99245.75
2023-03-31T05:08:48.477Z,99242.28
2023-03-31T05:09:23.498Z,99229.66
2023-03-31T05:09:55.807Z,99244.16
2023-03-31T05:10:28.033Z,99239.06
2023-03-31T05:11:02.816Z,99239.59
2023-03-31T05:11:35.002Z,99236.63
2023-03-31T05:12:07.873Z,99231.28
2023-03-31T05:12:45.231Z,99231.03
2023-03-31T05:13:17.541Z,99236.13
2023-03-31T05:13:49.700Z,99233.69
2023-03-31T05:14:24.493Z,99233.44
2023-03-31T05:14:56.847Z,99232.91
2023-03-31T05:15:32.894Z,99238.81
2023-03-31T05:16:08.435Z,99239.31
2023-03-31T05:16:42.229Z,99239.31
2023-03-31T05:17:18.040Z,99234.25
2023-03-31T05:17:51.023Z,99234.50
2023-03-31T05:18:23.196Z,99233.44
2023-03-31T05:18:57.958Z,99236.13
2023-03-31T05:19:30.228Z,99228.88
2023-03-31T05:20:06.276Z,99231.56
2023-03-31T05:20:41.332Z,99226.22
2023-03-31T05:21:15.752Z,99233.16
2023-03-31T05:21:50.626Z,99227.78
2023-03-31T05:22:22.840Z,99229.16
2023-03-31T05:22:55.008Z,99229.16
2023-03-31T05:23:30.346Z,99232.63
2023-03-31T05:24:02.518Z,99226.47
2023-03-31T05:24:34.961Z,99222.72
2023-03-31T05:25:12.048Z,99223.78
2023-03-31T05:25:44.247Z,99220.84
2023-03-31T05:26:16.581Z,99226.97
2023-03-31T05:26:52.937Z,99223.78
2023-03-31T05:27:27.880Z,99225.91
2023-03-31T05:28:02.907Z,99223.78
2023-03-31T05:28:35.347Z,99216.00
2023-03-31T05:29:10.455Z,99218.97
2023-03-31T05:29:42.637Z,99218.66
2023-03-31T05:30:18.580Z,99218.38
2023-03-31T05:30:50.866Z,99212.50
2023-03-31T05:31:23.613Z,99215.19
2023-03-31T05:31:58.529Z,99211.44
2023-03-31T05:32:30.845Z,99218.94
2023-03-31T05:33:03.087Z,99209.81
2023-03-31T05:33:40.549Z,99216.28
2023-03-31T05:34:12.842Z,99209.28
2023-03-31T05:34:49.336Z,99206.59
2023-03-31T05:35:23.150Z,99213.31
2023-03-31T05:35:57.956Z,99208.25
2023-03-31T05:36:30.219Z,99211.19
2023-03-31T05:37:02.442Z,99196.44
2023-03-31T05:37:37.353Z,99201.78
2023-03-31T05:38:09.539Z,99198.34
2023-03-31T05:38:42.038Z,99198.56
2023-03-31T05:39:17.300Z,99202.59
2023-03-31T05:39:49.564Z,99192.97
2023-03-31T05:40:21.865Z,99196.94
2023-03-31T05:40:56.608Z,99201.78
2023-03-31T05:41:28.993Z,99198.84
2023-03-31T05:42:01.345Z,99196.44
2023-03-31T05:42:36.374Z,99198.06
2023-03-31T05:43:11.256Z,99211.44
2023-03-31T05:43:44.036Z,99194.84
2023-03-31T05:44:20.965Z,99206.63
2023-03-31T05:44:53.400Z,99193.75
2023-03-31T05:45:25.627Z,99192.97
2023-03-31T05:46:00.483Z,99192.66
2023-03-31T05:46:32.849Z,99189.47
2023-03-31T05:47:05.227Z,99186.78
2023-03-31T05:47:40.069Z,99177.69
2023-03-31T05:48:12.400Z,99183.84
2023-03-31T05:48:45.128Z,99185.16
2023-03-31T05:49:20.165Z,99181.44
2023-03-31T05:49:52.421Z,99182.25
2023-03-31T05:50:24.624Z,99171.53
2023-03-31T05:51:01.032Z,99172.88
2023-03-31T05:51:33.442Z,99170.75
2023-03-31T05:52:06.689Z,99169.38
2023-03-31T05:52:41.473Z,99170.72
2023-03-31T05:53:13.917Z,99173.94
2023-03-31T05:53:48.817Z,99167.50
2023-03-31T05:54:21.134Z,99167.50
2023-03-31T05:54:55.941Z,99159.47
2023-03-31T05:55:28.133Z,99167.50
2023-03-31T05:56:02.209Z,99166.97
2023-03-31T05:56:37.105Z,99165.63
2023-03-31T05:57:10.227Z,99158.91
2023-03-31T05:57:42.464Z,99157.84
2023-03-31T05:58:19.856Z,99156.78
2023-03-31T05:58:52.617Z,99155.97
2023-03-31T05:59:24.938Z,99155.69
2023-03-31T05:59:59.747Z,99155.13
2023-03-31T06:00:32.257Z,99150.31
2023-03-31T06:01:06.899Z,99150.81
2023-03-31T06:01:42.057Z,99150.00
2023-03-31T06:02:14.715Z,99144.38
2023-03-31T06:02:47.207Z,99154.56
2023-03-31T06:03:22.543Z,99151.88
2023-03-31T06:03:54.731Z,99149.19
2023-03-31T06:04:29.693Z,99147.31
2023-03-31T06:05:01.903Z,99145.44
2023-03-31T06:05:35.070Z,99153.22
2023-03-31T06:06:13.318Z,99137.94
2023-03-31T06:06:46.328Z,99150.53
2023-03-31T06:07:18.664Z,99143.25
2023-03-31T06:07:53.718Z,99153.16
2023-03-31T06:08:26.138Z,99144.84
2023-03-31T06:09:01.020Z,99144.59
2023-03-31T06:09:33.215Z,99144.84
2023-03-31T06:10:08.482Z,99147.03
2023-03-31T06:10:43.272Z,99148.34
2023-03-31T06:11:17.393Z,99149.44
2023-03-31T06:11:52.159Z,99152.41
2023-03-31T06:12:24.365Z,99156.66
2023-03-31T06:12:56.572Z,99149.72
2023-03-31T06:13:33.919Z,99156.66
2023-03-31T06:14:06.279Z,99155.88
2023-03-31T06:14:41.046Z,99154.78
2023-03-31T06:15:13.296Z,99148.63
2023-03-31T06:15:57.097Z,99154.28
2023-03-31T06:16:29.619Z,99156.41
2023-03-31T06:17:04.543Z,99154.53
2023-03-31T06:17:38.508Z,99152.66
2023-03-31T06:18:11.441Z,99147.31
2023-03-31T06:18:46.588Z,99150.78
2023-03-31T06:19:19.206Z,99149.19
2023-03-31T06:19:51.600Z,99149.44
2023-03-31T06:20:28.552Z,99144.06
2023-03-31T06:21:01.237Z,99144.06
2023-03-31T06:21:34.032Z,99138.44
2023-03-31T06:22:08.814Z,99138.19
2023-03-31T06:22:41.053Z,99145.69
2023-03-31T06:23:13.250Z,99130.94
2023-03-31T06:23:48.735Z,99138.69
2023-03-31T06:24:20.992Z,99141.09
2023-03-31T06:24:53.215Z,99132.50
2023-03-31T06:25:32.386Z,99133.63
2023-03-31T06:26:09.526Z,99144.63
2023-03-31T06:26:42.332Z,99142.19
2023-03-31T06:27:17.253Z,99143.56
2023-03-31T06:27:49.434Z,99154.56
2023-03-31T06:28:22.223Z,99154.56
2023-03-31T06:28:59.605Z,99147.06
2023-03-31T06:29:31.830Z,99157.78
2023-03-31T06:30:05.002Z,99155.38
2023-03-31T06:30:39.837Z,99158.34
2023-03-31T06:31:13.942Z,99158.59
2023-03-31T06:31:48.808Z,99165.34
2023-03-31T06:32:21.746Z,99162.38
2023-03-31T06:32:56.625Z,99157.56
2023-03-31T06:33:28.931Z,99163.72
2023-03-31T06:34:01.274Z,99160.53
2023-03-31T06:34:36.092Z,99156.50
2023-03-31T06:35:09.293Z,99160.53
2023-03-31T06:35:42.003Z,99162.41
2023-03-31T06:36:19.030Z,99158.13
2023-03-31T06:36:51.401Z,99156.25
2023-03-31T06:37:23.597Z,99159.47
2023-03-31T06:37:58.356Z,99165.38
2023-03-31T06:38:32.864Z,99146.63
2023-03-31T06:39:07.731Z,99159.44
2023-03-31T06:39:39.988Z,99154.88
2023-03-31T06:40:13.083Z,99154.63
2023-03-31T06:40:47.818Z,99153.56
2023-03-31T06:41:21.139Z,99153.28
2023-03-31T06:41:55.894Z,99154.38
2023-03-31T06:42:32.780Z,99155.97
2023-03-31T06:43:05.101Z,99155.72
2023-03-31T06:43:40.075Z,99156.22
2023-03-31T06:44:16.833Z,99151.16
2023-03-31T06:44:51.607Z,99154.09
2023-03-31T06:45:23.903Z,99150.84
2023-03-31T06:45:59.291Z,99150.09
2023-03-31T06:46:31.859Z,99160.50
2023-03-31T06:47:06.892Z,99152.47
2023-03-31T06:47:39.276Z,99149.78
2023-03-31T06:48:11.655Z,99153.03
2023-03-31T06:48:46.542Z,99147.13
2023-03-31T06:49:18.959Z,99145.78
2023-03-31T06:49:53.724Z,99149.81
2023-03-31T06:50:25.962Z,99136.66
2023-03-31T06:51:01.465Z,99142.56
2023-03-31T06:51:36.307Z,99151.13
2023-03-31T06:52:08.539Z,99141.50
2023-03-31T06:52:41.369Z,99142.28
2023-03-31T06:53:16.151Z,99142.03
2023-03-31T06:53:48.506Z,99131.59
2023-03-31T06:54:20.837Z,99140.69
2023-03-31T06:54:55.605Z,99132.94
2023-03-31T06:55:27.870Z,99132.13
2023-03-31T06:56:00.718Z,99137.47
2023-03-31T06:56:35.758Z,99133.47
2023-03-31T06:57:08.112Z,99130.78
2023-03-31T06:57:41.546Z,99136.66
2023-03-31T06:58:16.452Z,99138.28
2023-03-31T06:58:48.731Z,99127.84
2023-03-31T06:59:26.448Z,99131.56
2023-03-31T06:59:58.616Z,99132.69
2023-03-31T07:00:32.947Z,99118.19
2023-03-31T07:01:09.101Z,99125.16
2023-03-31T07:01:42.868Z,99125.44
2023-03-31T07:02:18.049Z,99120.88
2023-03-31T07:02:50.339Z,99116.03
2023-03-31T07:03:22.943Z,99114.97
2023-03-31T07:03:57.859Z,99118.72
2023-03-31T07:04:30.097Z,99121.09
2023-03-31T07:05:02.383Z,99122.97
2023-03-31T07:05:37.341Z,99112.22
2023-03-31T07:06:09.544Z,99117.88
2023-03-31T07:06:44.430Z,99119.22